createdAt,value
2019-05-09T02:35:39.561Z,9.70
2019-05-09T03:52:07.615Z,6.80
2019-05-09T03:59:48.556Z,7.70
2019-05-09T04:10:18.436Z,8.50
2019-05-09T04:16:19.251Z,10.10
2019-05-09T04:48:53.980Z,8.10
2019-05-09T05:00:47.961Z,6.20
2019-05-09T05:07:09.878Z,7.50
2019-05-09T05:20:39.580Z,6.90
2019-05-09T05:38:20.383Z,4.00
2019-05-09T05:44:09.496Z,5.00
2019-05-09T05:50:13.419Z,3.90
2019-05-09T05:56:20.206Z,5.20
2019-05-09T06:01:31.433Z,4.10
2019-05-09T06:08:41.098Z,6.00
2019-05-09T06:13:52.456Z,5.70
2019-05-09T06:19:11.392Z,4.80
2019-05-09T06:24:44.441Z,6.30
2019-05-09T06:30:51.203Z,5.80
2019-05-09T06:35:51.525Z,5.90
2019-05-09T06:41:13.478Z,6.50
2019-05-09T06:46:53.854Z,7.40
2019-05-09T06:51:55.338Z,4.70
2019-05-09T06:57:01.436Z,5.20
2019-05-09T07:02:12.178Z,6.50
2019-05-09T07:07:17.614Z,4.30
2019-05-09T07:12:42.670Z,5.90
2019-05-09T07:17:42.131Z,4.70
2019-05-09T07:23:01.141Z,3.80
2019-05-09T07:27:59.242Z,5.40
2019-05-09T07:33:09.538Z,4.90
2019-05-09T07:38:08.449Z,5.50
2019-05-09T07:43:11.038Z,4.80
2019-05-09T07:48:40.505Z,5.00
2019-05-09T07:53:32.089Z,8.40
2019-05-09T07:58:43.273Z,5.40
2019-05-09T08:03:44.707Z,4.50
2019-05-09T08:08:49.449Z,3.70
2019-05-09T08:13:45.129Z,4.40
2019-05-09T08:18:43.468Z,4.80
2019-05-09T08:24:39.176Z,6.00
2019-05-09T08:29:33.070Z,4.10
2019-05-09T08:35:08.499Z,4.30
2019-05-09T08:40:38.098Z,3.20
2019-05-09T08:45:37.961Z,3.40
2019-05-09T08:50:41.167Z,4.50
2019-05-09T08:55:42.271Z,3.40
2019-05-09T09:00:48.985Z,2.50
2019-05-09T09:05:43.327Z,2.40
2019-05-09T09:10:43.550Z,4.40
2019-05-09T09:16:14.108Z,3.90
2019-05-09T09:21:12.765Z,3.70
2019-05-09T09:26:15.671Z,2.60
2019-05-09T09:31:12.361Z,3.80
2019-05-09T09:36:08.683Z,6.00
2019-05-09T09:40:59.561Z,1.60
2019-05-09T09:47:11.764Z,3.80
2019-05-09T09:52:13.567Z,1.90
2019-05-09T09:57:48.569Z,2.40
2019-05-09T10:03:47.409Z,3.30
2019-05-09T10:08:43.853Z,2.00
2019-05-09T10:15:28.758Z,1.40
2019-05-09T10:20:22.887Z,1.80
2019-05-09T10:31:29.490Z,2.50
2019-05-09T10:40:29.034Z,1.70
2019-05-09T10:47:08.287Z,2.90
2019-05-09T10:52:01.498Z,1.60
2019-05-09T10:56:51.607Z,1.50
2019-05-09T11:01:43.424Z,3.00
2019-05-09T11:07:01.042Z,2.90
2019-05-09T11:11:50.680Z,2.70
2019-05-09T11:21:59.461Z,2.70
2019-05-09T11:27:48.656Z,2.90
2019-05-09T11:32:59.745Z,1.90
2019-05-09T11:37:50.620Z,2.00
2019-05-09T11:42:43.348Z,3.50
2019-05-09T11:49:02.544Z,2.50
2019-05-09T11:53:49.708Z,3.90
2019-05-09T11:58:42.211Z,4.80
2019-05-09T12:06:02.416Z,2.10
2019-05-09T12:10:47.608Z,3.40
2019-05-09T12:16:04.110Z,4.70
2019-05-09T12:20:54.048Z,7.50
2019-05-09T12:25:48.691Z,4.60
2019-05-09T12:30:41.684Z,5.80
2019-05-09T12:35:42.896Z,4.80
2019-05-09T12:40:38.825Z,1.80
2019-05-09T12:45:31.360Z,2.40
2019-05-09T12:50:25.240Z,2.30
2019-05-09T12:55:19.119Z,3.10
2019-05-09T13:00:11.991Z,1.90
2019-05-09T13:05:03.919Z,2.20
2019-05-09T13:09:59.340Z,2.50
2019-05-09T13:14:51.946Z,1.70
2019-05-09T13:19:47.742Z,2.20
2019-05-09T13:24:47.598Z,2.30
2019-05-09T13:29:38.675Z,2.10
2019-05-09T13:35:11.429Z,2.70
2019-05-09T13:42:19.450Z,2.40
2019-05-09T13:47:14.964Z,2.40
2019-05-09T13:54:28.691Z,3.20
2019-05-09T13:59:22.816Z,3.10
2019-05-09T14:04:39.437Z,2.70
2019-05-09T14:09:29.274Z,3.50
2019-05-09T14:14:21.269Z,2.10
2019-05-09T14:19:40.342Z,3.00
2019-05-09T14:24:36.440Z,2.70
2019-05-09T14:29:30.625Z,3.40
2019-05-09T14:34:22.781Z,3.20
2019-05-09T14:39:18.693Z,2.30
2019-05-09T14:44:10.543Z,2.00
2019-05-09T14:49:03.076Z,3.20
2019-05-09T14:53:55.552Z,2.60
2019-05-09T14:59:00.920Z,2.10
2019-05-09T15:03:53.191Z,1.90
2019-05-09T15:08:48.004Z,2.10
2019-05-09T15:13:39.917Z,1.40
2019-05-09T15:18:40.808Z,1.30
2019-05-09T15:23:31.949Z,2.90
2019-05-09T15:28:32.745Z,1.60
2019-05-09T15:34:42.362Z,2.00
2019-05-09T15:39:38.053Z,2.20
2019-05-09T15:45:12.633Z,1.80
2019-05-09T15:50:15.425Z,1.20
2019-05-09T15:55:11.325Z,1.20
2019-05-09T16:00:03.196Z,3.60
2019-05-09T16:04:55.203Z,1.80
2019-05-09T16:09:49.995Z,0.80
2019-05-09T16:14:43.392Z,0.70
2019-05-09T16:19:37.625Z,1.10
2019-05-09T16:24:29.557Z,0.90
2019-05-09T16:29:39.688Z,1.60
2019-05-09T16:34:29.805Z,0.90
2019-05-09T16:39:21.128Z,2.30
2019-05-09T16:44:18.746Z,1.70
2019-05-09T16:49:11.761Z,1.30
2019-05-09T16:54:22.346Z,1.00
2019-05-09T16:59:30.754Z,1.30
2019-05-09T17:04:38.637Z,1.60
2019-05-09T17:09:28.617Z,1.90
2019-05-09T17:14:21.763Z,1.10
2019-05-09T17:19:25.430Z,1.40
2019-05-09T17:44:15.632Z,3.20
2019-05-09T17:49:14.823Z,3.00
2019-05-09T17:54:14.433Z,2.20
2019-05-09T17:59:15.054Z,4.40
2019-05-09T18:04:12.301Z,1.70
2019-05-09T18:09:18.918Z,2.80
2019-05-09T18:14:31.261Z,3.20
2019-05-09T18:19:30.337Z,10.50
